Tuesday, November 13, 2018, 6:29 PM CST
Back to Local

KIKK, Kankakee, Greater Kankakee Airport

Location: Kankakee, IL, United States Lat: 41.071
Local Time: 6:29 PM CST ( 0:29 GMT) Lon: -87.846
Time Zone: US/Central Elev: 629 ft

Show me the last for .
Show Decoded

2018-11-13 18:15 METAR KIKK 140015Z AUTO 30004KT 10SM CLR M05/M11 A3046 RMK AO2 T10501109 =
2018-11-13 17:55 METAR KIKK 132355Z AUTO 31005KT 10SM CLR M04/M11 A3045 RMK AO2 T10441110 11015
                 21045 =
2018-11-13 17:35 METAR KIKK 132335Z AUTO 32006KT 10SM CLR M04/M11 A3045 RMK AO2 T10421108 =
2018-11-13 17:15 METAR KIKK 132315Z AUTO 31006KT 10SM CLR M04/M11 A3045 RMK AO2 T10411107 =
2018-11-13 16:55 METAR KIKK 132255Z AUTO 31005KT 10SM CLR M04/M11 A3045 RMK AO2 T10381107 =
2018-11-13 16:35 METAR KIKK 132235Z AUTO 30006KT 10SM CLR M03/M11 A3045 RMK AO2 T10331112 =
2018-11-13 16:15 METAR KIKK 132215Z AUTO 30007KT 10SM CLR M03/M11 A3045 RMK AO2 T10271110 =
2018-11-13 15:55 METAR KIKK 132155Z AUTO 30007KT 10SM CLR M02/M11 A3045 RMK AO2 T10241107 =
2018-11-13 15:35 METAR KIKK 132135Z AUTO 30008G14KT 10SM CLR M02/M11 A3045 RMK AO2 T10201110 =
2018-11-13 15:15 METAR KIKK 132115Z AUTO 31008KT 10SM CLR M02/M11 A3044 RMK AO2 T10191108 =
2018-11-13 14:55 METAR KIKK 132055Z AUTO 29005KT 10SM CLR M02/M11 A3044 RMK AO2 T10191107 =
2018-11-13 14:35 METAR KIKK 132035Z AUTO 29008G16KT 10SM CLR M02/M10 A3043 RMK AO2 T10171103 =
2018-11-13 14:15 METAR KIKK 132015Z AUTO 31008KT 10SM CLR M01/M10 A3042 RMK AO2 T10151099 =
2018-11-13 13:55 METAR KIKK 131955Z AUTO 32011KT 10SM CLR M02/M10 A3042 RMK AO2 T10171103 =
2018-11-13 13:35 METAR KIKK 131935Z AUTO 33009KT 10SM CLR M02/M11 A3043 RMK AO2 T10191107 =
2018-11-13 13:15 METAR KIKK 131915Z AUTO 31010KT 270V330 10SM CLR M02/M10 A3043 RMK AO2 T10201102
                 =
2018-11-13 12:55 METAR KIKK 131855Z AUTO 32010KT 10SM CLR M02/M10 A3043 RMK AO2 T10211102 =
2018-11-13 12:35 METAR KIKK 131835Z AUTO 33010KT 10SM CLR M02/M10 A3043 RMK AO2 T10221097 =
2018-11-13 12:15 METAR KIKK 131815Z AUTO 31008KT 10SM CLR M02/M09 A3044 RMK AO2 T10251095 =
2018-11-13 11:55 METAR KIKK 131755Z AUTO 32008KT 10SM SCT030 M03/M10 A3045 RMK AO2 T10271098
                 11026 21072 =
2018-11-13 11:35 METAR KIKK 131735Z AUTO 31009KT 10SM BKN030 M03/M10 A3045 RMK AO2 T10301100 =
2018-11-13 11:15 METAR KIKK 131715Z AUTO 31010G14KT 10SM OVC030 M03/M10 A3046 RMK AO2 T10311098 =
2018-11-13 10:55 METAR KIKK 131655Z AUTO 32012G15KT 10SM OVC030 M04/M10 A3046 RMK AO2 T10371102 =
2018-11-13 10:35 METAR KIKK 131635Z AUTO 31011KT 10SM OVC030 M04/M11 A3045 RMK AO2 T10411106 =
2018-11-13 10:15 METAR KIKK 131615Z AUTO 33011KT 10SM BKN030 M05/M11 A3044 RMK AO2 T10461107 =
2018-11-13 09:55 METAR KIKK 131555Z AUTO 33011KT 10SM CLR M04/M11 A3044 RMK AO2 T10451110 =
2018-11-13 09:35 METAR KIKK 131535Z AUTO 34013G20KT 10SM CLR M05/M11 A3043 RMK AO2 T10481111 =
2018-11-13 09:15 METAR KIKK 131515Z AUTO 33012KT 10SM CLR M05/M11 A3043 RMK AO2 T10511111 =
2018-11-13 08:55 METAR KIKK 131455Z AUTO 33016KT 10SM CLR M05/M11 A3042 RMK AO2 T10551112 =
2018-11-13 08:35 METAR KIKK 131435Z AUTO 33012G17KT 10SM CLR M06/M12 A3042 RMK AO2 T10601117 =
2018-11-13 08:15 METAR KIKK 131415Z AUTO 32012G18KT 10SM CLR M06/M12 A3042 RMK AO2 T10631120 =
2018-11-13 07:55 METAR KIKK 131355Z AUTO 32013G17KT 10SM CLR M06/M12 A3042 RMK AO2 T10651121 =
2018-11-13 07:35 METAR KIKK 131335Z AUTO 33011KT 10SM CLR M07/M12 A3041 RMK AO2 T10681120 =
2018-11-13 07:15 METAR KIKK 131315Z AUTO 33012KT 10SM CLR M07/M12 A3040 RMK AO2 T10701120 =
2018-11-13 06:55 METAR KIKK 131255Z AUTO 33011KT 10SM CLR M07/M12 A3040 RMK AO2 T10721121 =
2018-11-13 06:35 METAR KIKK 131235Z AUTO 33007KT 10SM CLR M07/M11 A3040 RMK AO2 T10711113 =
2018-11-13 06:15 METAR KIKK 131215Z AUTO 33009KT 10SM CLR M07/M11 A3039 RMK AO2 T10681115 =
2018-11-13 05:55 METAR KIKK 131155Z AUTO 34008G14KT 10SM CLR M07/M11 A3038 RMK AO2 T10671111
                 11032 21068 =
2018-11-13 05:35 METAR KIKK 131135Z AUTO 32008KT 10SM CLR M07/M11 A3037 RMK AO2 T10661110 =
2018-11-13 05:15 METAR KIKK 131115Z AUTO 31008KT 10SM CLR M06/M11 A3037 RMK AO2 T10651110 =
2018-11-13 04:55 METAR KIKK 131055Z AUTO 31009KT 10SM CLR M06/M10 A3037 RMK AO2 T10601105 =
2018-11-13 04:35 METAR KIKK 131035Z AUTO 33009KT 10SM CLR M06/M10 A3037 RMK AO2 T10601102 =
2018-11-13 04:15 METAR KIKK 131015Z AUTO 33011KT 10SM CLR M06/M10 A3036 RMK AO2 T10571102 =
2018-11-13 03:55 METAR KIKK 130955Z AUTO 33009KT 10SM CLR M06/M10 A3036 RMK AO2 T10571100 =
2018-11-13 03:35 METAR KIKK 130935Z AUTO 32009KT 10SM CLR M06/M10 A3035 RMK AO2 T10571099 =
2018-11-13 03:15 METAR KIKK 130915Z AUTO 33008KT 10SM CLR M05/M10 A3035 RMK AO2 T10551099 =
2018-11-13 02:55 METAR KIKK 130855Z AUTO 33009KT 10SM CLR M05/M10 A3035 RMK AO2 T10541097 =
2018-11-13 02:35 METAR KIKK 130835Z AUTO 34008KT 10SM CLR M05/M10 A3035 RMK AO2 T10501097 =
2018-11-13 02:15 METAR KIKK 130815Z AUTO 33009KT 10SM CLR M05/M09 A3035 RMK AO2 T10501094 =
2018-11-13 01:55 METAR KIKK 130755Z AUTO 33011KT 10SM SCT031 M05/M09 A3035 RMK AO2 T10481090 =
2018-11-13 01:35 METAR KIKK 130735Z AUTO 34008KT 10SM OVC031 M05/M09 A3034 RMK AO2 T10461086 =
2018-11-13 01:15 METAR KIKK 130715Z AUTO 34010KT 10SM OVC033 M04/M08 A3034 RMK AO2 T10441084 =
2018-11-13 00:55 METAR KIKK 130655Z AUTO 33009KT 10SM BKN033 M04/M08 A3034 RMK AO2 T10411079 =
2018-11-13 00:35 METAR KIKK 130635Z AUTO 33009KT 10SM CLR M04/M07 A3034 RMK AO2 T10391075 =
2018-11-13 00:15 METAR KIKK 130615Z AUTO 33009KT 10SM CLR M03/M07 A3034 RMK AO2 T10351070 =
2018-11-12 23:55 METAR KIKK 130555Z AUTO 33009KT 10SM CLR M03/M07 A3034 RMK AO2 T10321068 11010
                 21032 400311032 =
2018-11-12 23:35 METAR KIKK 130535Z AUTO 33010G16KT 10SM -DZ SCT055 M03/M06 A3034 RMK AO2
                 T10301060 =
2018-11-12 23:15 METAR KIKK 130515Z AUTO 34008G16KT 10SM RA OVC055 M03/M05 A3035 RMK AO2
                 T10271053 =
2018-11-12 22:55 METAR KIKK 130455Z AUTO 34011G20KT 10SM -RA SCT032 BKN043 OVC055 M03/M05 A3035
                 RMK AO2 T10261054 =
2018-11-12 22:35 METAR KIKK 130435Z AUTO 33009KT 10SM -RA SCT030 BKN037 OVC047 M02/M05 A3034 RMK
                 AO2 T10251050 =
2018-11-12 22:15 METAR KIKK 130415Z AUTO 36011KT 10SM -RA BKN034 OVC049 M02/M05 A3035 RMK AO2
                 T10231050 =
2018-11-12 21:55 METAR KIKK 130355Z AUTO 32010KT 10SM -RA BKN034 OVC043 M02/M05 A3035 RMK AO2
                 T10231048 =
2018-11-12 21:35 METAR KIKK 130335Z AUTO 32008KT 10SM -RA BKN034 OVC040 M02/M04 A3035 RMK AO2
                 T10211045 =
2018-11-12 21:15 METAR KIKK 130315Z AUTO 33008KT 10SM RA SCT011 BKN032 OVC040 M02/M04 A3035 RMK
                 AO2 T10211043 =
2018-11-12 20:55 METAR KIKK 130255Z AUTO 33009KT 10SM UP BKN011 OVC029 M02/M04 A3034 RMK AO2
                 T10211041 =
2018-11-12 20:35 METAR KIKK 130235Z AUTO 34008KT 10SM -SN BKN009 BKN026 OVC032 M02/M04 A3033 RMK
                 AO2 T10201038 =
2018-11-12 20:15 METAR KIKK 130215Z AUTO 33009KT 10SM UP BKN009 BKN024 OVC038 M02/M03 A3033 RMK
                 AO2 T10181035 =
2018-11-12 19:55 METAR KIKK 130155Z AUTO 34009KT 5SM -SN SCT009 SCT012 OVC026 M02/M03 A3033 RMK
                 AO2 T10171031 =
2018-11-12 19:35 METAR KIKK 130135Z AUTO 33010KT 7SM -SN SCT009 BKN012 OVC028 M01/M03 A3033 RMK
                 AO2 T10151030 =

Support USWX by starting your Amazon purchase here.